createdAt,value
2022-09-21T00:00:43.417Z,7.70
2022-09-21T00:03:09.820Z,5.88
2022-09-21T00:05:36.198Z,10.00
2022-09-21T00:08:05.103Z,6.72
2022-09-21T00:10:31.902Z,7.43
2022-09-21T00:12:59.167Z,6.57
2022-09-21T00:15:26.035Z,6.70
2022-09-21T00:17:53.800Z,4.15
2022-09-21T00:20:21.653Z,7.68
2022-09-21T00:22:48.302Z,5.93
2022-09-21T00:25:15.327Z,7.97
2022-09-21T00:27:41.879Z,6.82
2022-09-21T00:30:09.162Z,6.72
2022-09-21T00:32:37.620Z,5.18
2022-09-21T00:35:06.780Z,4.38
2022-09-21T00:37:34.047Z,7.85
2022-09-21T00:40:00.530Z,7.85
2022-09-21T00:42:32.646Z,8.43
2022-09-21T00:44:59.559Z,6.65
2022-09-21T00:47:27.464Z,7.13
2022-09-21T00:49:55.605Z,5.80
2022-09-21T00:52:26.912Z,9.13
2022-09-21T00:54:56.158Z,10.35
2022-09-21T00:57:25.642Z,8.45
2022-09-21T00:59:54.923Z,9.65
2022-09-21T01:02:22.004Z,6.75
2022-09-21T01:04:49.055Z,7.18
2022-09-21T01:07:19.271Z,8.07
2022-09-21T01:09:50.368Z,7.53
2022-09-21T01:12:29.756Z,6.90
2022-09-21T01:15:34.639Z,7.20
2022-09-21T01:18:35.306Z,4.57
2022-09-21T01:21:19.410Z,5.65
2022-09-21T01:24:04.069Z,4.82
2022-09-21T01:26:49.072Z,5.35
2022-09-21T01:29:43.314Z,5.07
2022-09-21T01:32:36.049Z,5.82
2022-09-21T01:35:19.286Z,5.28
2022-09-21T01:37:48.672Z,6.35
2022-09-21T01:40:36.052Z,9.25
2022-09-21T01:43:04.139Z,6.43
2022-09-21T01:45:37.022Z,7.22
2022-09-21T01:48:04.047Z,8.57
2022-09-21T01:50:38.325Z,6.85
2022-09-21T01:53:21.622Z,8.88
2022-09-21T01:56:01.418Z,5.70
2022-09-21T01:58:37.532Z,7.97
2022-09-21T02:01:05.137Z,9.95
2022-09-21T02:03:42.437Z,9.02
2022-09-21T02:06:10.047Z,11.32
2022-09-21T02:08:36.561Z,10.10
2022-09-21T02:11:04.265Z,12.18
2022-09-21T02:13:33.138Z,9.93
2022-09-21T02:16:03.761Z,10.95
2022-09-21T02:19:02.596Z,9.15
2022-09-21T02:21:43.492Z,8.50
2022-09-21T02:24:42.134Z,10.07
2022-09-21T02:27:36.375Z,11.02
2022-09-21T02:30:14.605Z,9.88
2022-09-21T02:32:51.290Z,10.05
2022-09-21T02:36:02.052Z,10.02
2022-09-21T02:38:28.300Z,8.75
2022-09-21T02:41:31.355Z,10.88
2022-09-21T02:44:08.319Z,8.73
2022-09-21T02:46:39.011Z,9.75
2022-09-21T02:49:12.751Z,10.50
2022-09-21T02:51:44.234Z,8.35
2022-09-21T02:54:11.887Z,10.25
2022-09-21T02:56:38.909Z,10.68
2022-09-21T02:59:06.078Z,8.35
2022-09-21T03:01:32.948Z,10.25
2022-09-21T03:03:59.538Z,9.23
2022-09-21T03:06:25.931Z,7.78
2022-09-21T03:08:52.502Z,7.80
2022-09-21T03:11:19.634Z,9.35
2022-09-21T03:13:46.309Z,9.95
2022-09-21T03:16:13.295Z,8.60
2022-09-21T03:18:40.253Z,8.02
2022-09-21T03:21:06.932Z,8.07
2022-09-21T03:23:33.320Z,8.68
2022-09-21T03:25:59.719Z,8.65
2022-09-21T03:28:26.508Z,9.98
2022-09-21T03:30:52.975Z,8.63
2022-09-21T03:33:20.154Z,8.10
2022-09-21T03:35:48.642Z,9.88
2022-09-21T03:38:16.703Z,8.95
2022-09-21T03:40:46.930Z,10.00
2022-09-21T03:43:13.616Z,10.70
2022-09-21T03:45:41.947Z,8.57
2022-09-21T03:48:10.018Z,9.32
2022-09-21T03:50:37.188Z,11.07
2022-09-21T03:53:03.967Z,8.90
2022-09-21T03:55:31.155Z,7.57
2022-09-21T03:57:57.522Z,9.82
2022-09-21T04:00:24.027Z,8.98
2022-09-21T04:02:50.421Z,9.70
2022-09-21T04:05:16.985Z,9.65
2022-09-21T04:07:45.694Z,9.52
2022-09-21T04:10:13.691Z,8.85
2022-09-21T04:12:43.961Z,9.20
2022-09-21T04:15:15.543Z,8.40
2022-09-21T04:17:42.139Z,8.57
2022-09-21T04:20:09.136Z,7.43
2022-09-21T04:22:41.166Z,8.32
2022-09-21T04:25:10.087Z,8.02
2022-09-21T04:27:36.479Z,7.75
2022-09-21T04:30:02.917Z,7.40
2022-09-21T04:32:29.276Z,8.30
2022-09-21T04:34:55.798Z,9.95
2022-09-21T04:37:22.326Z,9.45
2022-09-21T04:39:48.824Z,8.73
2022-09-21T04:42:15.318Z,8.77
2022-09-21T04:44:41.710Z,8.30
2022-09-21T04:47:08.132Z,8.15
2022-09-21T04:49:34.544Z,8.07
2022-09-21T04:52:01.268Z,8.45
2022-09-21T04:54:27.670Z,8.85
2022-09-21T04:56:54.144Z,8.80
2022-09-21T04:59:20.540Z,7.88
2022-09-21T05:01:46.957Z,8.07
2022-09-21T05:04:13.363Z,7.43
2022-09-21T05:06:39.769Z,6.93
2022-09-21T05:09:24.987Z,7.30
2022-09-21T05:11:52.891Z,7.70
2022-09-21T05:14:19.296Z,9.23
2022-09-21T05:16:49.506Z,8.90
2022-09-21T05:19:16.935Z,8.95
2022-09-21T05:21:43.373Z,9.95
2022-09-21T05:24:09.895Z,10.10
2022-09-21T05:26:36.275Z,10.65
2022-09-21T05:29:02.965Z,12.32
2022-09-21T05:31:42.334Z,10.05
2022-09-21T05:34:21.403Z,9.38
2022-09-21T05:37:10.258Z,9.70
2022-09-21T05:39:36.897Z,9.55
2022-09-21T05:42:03.616Z,9.48
2022-09-21T05:44:30.254Z,9.52
2022-09-21T05:47:05.650Z,9.15
2022-09-21T05:49:46.003Z,8.82
2022-09-21T05:52:27.767Z,9.40
2022-09-21T05:55:29.621Z,8.63
2022-09-21T05:58:04.044Z,7.95
2022-09-21T06:00:41.310Z,7.53
2022-09-21T06:03:26.847Z,7.18
2022-09-21T06:05:53.406Z,7.43
2022-09-21T06:08:19.831Z,12.00
2022-09-21T06:10:46.228Z,7.38
2022-09-21T06:13:12.635Z,7.80
2022-09-21T06:15:39.188Z,7.95
2022-09-21T06:18:09.036Z,9.00
2022-09-21T06:20:35.807Z,8.65
2022-09-21T06:23:06.738Z,8.48
2022-09-21T06:25:33.444Z,8.80
2022-09-21T06:28:08.290Z,9.70
2022-09-21T06:30:34.820Z,11.13
2022-09-21T06:33:01.707Z,8.50
2022-09-21T06:35:29.098Z,9.88
2022-09-21T06:38:05.622Z,7.82
2022-09-21T06:40:33.495Z,8.32
2022-09-21T06:43:00.833Z,10.35
2022-09-21T06:45:28.162Z,8.52
2022-09-21T06:47:55.929Z,9.32
2022-09-21T06:50:22.469Z,8.40
2022-09-21T06:52:49.064Z,9.30
2022-09-21T06:55:15.587Z,30.20
2022-09-21T06:57:42.033Z,18.90
2022-09-21T07:00:10.642Z,19.38
2022-09-21T07:02:37.287Z,12.95
2022-09-21T07:05:04.484Z,29.05
2022-09-21T07:07:31.556Z,16.50
2022-09-21T07:10:05.836Z,22.75
2022-09-21T07:12:34.641Z,21.95
2022-09-21T07:15:05.420Z,29.05
2022-09-21T07:17:36.603Z,27.67
2022-09-21T07:20:04.442Z,12.35
2022-09-21T07:22:31.987Z,16.17
2022-09-21T07:24:58.434Z,30.65
2022-09-21T07:27:25.913Z,17.65
2022-09-21T07:29:52.386Z,14.10
2022-09-21T07:32:19.038Z,10.38
2022-09-21T07:34:46.092Z,34.97
2022-09-21T07:37:13.312Z,12.15
2022-09-21T07:39:39.680Z,23.98
2022-09-21T07:42:06.720Z,19.15
2022-09-21T07:44:34.095Z,15.80
2022-09-21T07:47:02.228Z,12.68
2022-09-21T07:49:28.712Z,12.98
2022-09-21T07:51:55.115Z,12.05
2022-09-21T07:54:21.508Z,20.40
2022-09-21T07:57:07.854Z,16.60
2022-09-21T07:59:34.212Z,13.43
2022-09-21T08:02:00.684Z,13.07
2022-09-21T08:04:27.171Z,14.60
2022-09-21T08:06:53.574Z,32.47
2022-09-21T08:09:19.975Z,24.38
2022-09-21T08:11:47.082Z,25.23
2022-09-21T08:14:23.681Z,13.88
2022-09-21T08:16:52.588Z,15.52
2022-09-21T08:19:19.243Z,14.27
2022-09-21T08:21:51.350Z,21.63
2022-09-21T08:24:20.499Z,15.60
2022-09-21T08:26:46.902Z,13.55
2022-09-21T08:29:16.045Z,16.98
2022-09-21T08:31:43.181Z,26.27
2022-09-21T08:34:09.726Z,14.40
2022-09-21T08:36:36.128Z,14.13
2022-09-21T08:39:02.637Z,18.77
2022-09-21T08:41:50.653Z,17.35
2022-09-21T08:44:20.143Z,21.83
2022-09-21T08:46:48.895Z,21.50
2022-09-21T08:49:19.968Z,17.92
2022-09-21T08:51:51.162Z,16.15
2022-09-21T08:54:28.008Z,17.63
2022-09-21T08:57:04.953Z,17.67
2022-09-21T08:59:32.007Z,16.10
2022-09-21T09:02:13.651Z,17.27
2022-09-21T09:04:50.547Z,17.80
2022-09-21T09:07:30.244Z,17.67
2022-09-21T09:10:05.821Z,19.10
2022-09-21T09:12:37.700Z,18.40
2022-09-21T09:15:14.592Z,19.50
2022-09-21T09:17:52.899Z,20.13
2022-09-21T09:20:44.239Z,18.80
2022-09-21T09:23:17.202Z,22.65
2022-09-21T09:25:44.692Z,19.70
2022-09-21T09:28:35.935Z,21.17
2022-09-21T09:31:07.122Z,18.70
2022-09-21T09:33:44.826Z,17.25
2022-09-21T09:36:12.208Z,17.67
2022-09-21T09:38:42.192Z,19.17
2022-09-21T09:41:42.934Z,15.82
2022-09-21T09:44:18.979Z,17.15
2022-09-21T09:46:56.964Z,16.65
2022-09-21T09:49:34.626Z,15.60
2022-09-21T09:52:01.274Z,15.40
2022-09-21T09:54:28.860Z,15.27
2022-09-21T09:56:55.445Z,12.68
2022-09-21T09:59:41.768Z,15.15
2022-09-21T10:02:25.453Z,14.15
2022-09-21T10:05:06.649Z,12.85
2022-09-21T10:07:40.207Z,12.55
2022-09-21T10:10:21.475Z,12.35
2022-09-21T10:12:48.299Z,14.02
2022-09-21T10:15:17.526Z,10.18
2022-09-21T10:17:45.928Z,11.10
2022-09-21T10:20:18.047Z,11.52
2022-09-21T10:22:48.206Z,12.00
2022-09-21T10:25:19.321Z,12.00
2022-09-21T10:27:48.658Z,12.00
2022-09-21T10:30:38.702Z,9.35
2022-09-21T10:33:19.294Z,8.57
2022-09-21T10:35:52.962Z,10.70
2022-09-21T10:38:22.627Z,9.45
2022-09-21T10:40:50.223Z,9.95
2022-09-21T10:43:39.846Z,8.30
2022-09-21T10:46:09.173Z,7.18
2022-09-21T10:48:36.047Z,9.95
2022-09-21T10:51:02.905Z,7.28
2022-09-21T10:53:30.260Z,7.05
2022-09-21T10:56:21.862Z,6.85
2022-09-21T10:59:10.197Z,6.72
2022-09-21T11:01:43.582Z,7.13
2022-09-21T11:04:14.783Z,7.00
2022-09-21T11:06:47.341Z,7.10
2022-09-21T11:09:22.519Z,6.05
2022-09-21T11:12:17.034Z,5.00
2022-09-21T11:15:05.326Z,5.60
2022-09-21T11:17:47.188Z,9.75
2022-09-21T11:20:28.195Z,4.22
2022-09-21T11:22:57.593Z,5.15
2022-09-21T11:25:44.106Z,8.38
2022-09-21T11:28:15.919Z,7.00
2022-09-21T11:31:05.366Z,6.03
2022-09-21T11:33:54.511Z,5.65
2022-09-21T11:36:52.936Z,6.72
2022-09-21T11:39:41.192Z,5.38
2022-09-21T11:42:40.548Z,5.93
2022-09-21T11:45:38.702Z,9.15
2022-09-21T11:48:15.482Z,5.82
2022-09-21T11:54:10.522Z,4.63
2022-09-21T11:56:43.803Z,8.25
2022-09-21T11:59:18.160Z,5.15
2022-09-21T12:02:15.404Z,5.07
2022-09-21T12:04:44.199Z,6.85
2022-09-21T12:07:20.418Z,6.10
2022-09-21T12:10:07.545Z,7.28
2022-09-21T12:12:44.117Z,3.42
2022-09-21T12:15:34.659Z,2.25
2022-09-21T12:18:08.091Z,5.15
2022-09-21T12:20:58.554Z,5.60
2022-09-21T12:23:46.452Z,7.20
2022-09-21T12:26:17.808Z,5.57
2022-09-21T12:29:25.251Z,3.72
2022-09-21T12:32:00.680Z,6.65
2022-09-21T12:34:31.079Z,5.93
2022-09-21T12:37:08.589Z,4.65
2022-09-21T12:39:42.282Z,2.38
2022-09-21T12:42:49.016Z,4.00
2022-09-21T12:45:21.152Z,5.85
2022-09-21T12:48:23.174Z,3.50
2022-09-21T12:50:56.259Z,3.93
2022-09-21T12:53:27.248Z,6.28
2022-09-21T12:56:10.618Z,3.80
2022-09-21T12:58:51.296Z,6.65
2022-09-21T13:01:32.438Z,4.22
2022-09-21T13:04:04.826Z,2.90
2022-09-21T13:07:01.991Z,3.38
2022-09-21T13:09:29.256Z,5.50
2022-09-21T13:12:00.050Z,4.82
2022-09-21T13:14:35.783Z,5.57
2022-09-21T13:17:04.921Z,4.32
2022-09-21T13:19:33.302Z,3.28
2022-09-21T13:22:25.689Z,3.88
2022-09-21T13:25:03.063Z,4.93
2022-09-21T13:28:00.666Z,4.82
2022-09-21T13:30:31.892Z,5.13
2022-09-21T13:32:58.726Z,2.88
2022-09-21T13:35:44.231Z,3.30
2022-09-21T13:38:29.227Z,4.05
2022-09-21T13:41:04.347Z,4.13
2022-09-21T13:44:04.065Z,4.05
2022-09-21T13:46:34.945Z,4.03
2022-09-21T13:49:04.529Z,3.65
2022-09-21T13:51:34.672Z,2.58
2022-09-21T13:54:02.506Z,4.00
2022-09-21T13:56:29.206Z,6.70
2022-09-21T13:58:57.329Z,6.80
2022-09-21T14:01:46.855Z,5.07
2022-09-21T14:04:32.809Z,2.85
2022-09-21T14:07:04.097Z,4.70
2022-09-21T14:09:38.366Z,3.67
2022-09-21T14:12:06.375Z,3.40
2022-09-21T14:14:38.046Z,4.25
2022-09-21T14:17:06.212Z,5.63
2022-09-21T14:19:33.364Z,3.42
2022-09-21T14:22:06.225Z,4.53
2022-09-21T14:24:42.983Z,4.47
2022-09-21T14:27:30.058Z,4.20
2022-09-21T14:30:07.651Z,4.32
2022-09-21T14:32:42.528Z,4.57
2022-09-21T14:35:22.131Z,4.03
2022-09-21T14:37:52.146Z,3.58
2022-09-21T14:40:39.512Z,3.28
2022-09-21T14:43:12.716Z,3.50
2022-09-21T14:46:08.761Z,6.68
2022-09-21T14:48:50.431Z,4.82
2022-09-21T14:51:36.414Z,3.65
2022-09-21T14:54:15.021Z,4.18
2022-09-21T14:57:00.264Z,3.20
2022-09-21T15:00:14.770Z,2.55
2022-09-21T15:02:43.417Z,1.33
2022-09-21T15:05:19.502Z,3.15
2022-09-21T15:08:25.753Z,5.00
2022-09-21T15:11:15.919Z,3.75
2022-09-21T15:13:49.376Z,6.75
2022-09-21T15:16:40.249Z,1.92
2022-09-21T15:19:21.187Z,3.38
2022-09-21T15:21:53.010Z,4.72
2022-09-21T15:24:31.610Z,2.97
2022-09-21T15:27:10.378Z,4.35
2022-09-21T15:29:37.633Z,3.10
2022-09-21T15:32:05.562Z,3.33
2022-09-21T15:34:32.235Z,4.20
2022-09-21T15:37:15.476Z,1.95
2022-09-21T15:39:41.937Z,2.95
2022-09-21T15:42:19.516Z,5.22
2022-09-21T15:44:48.600Z,3.05
2022-09-21T15:47:18.127Z,5.07
2022-09-21T15:49:45.503Z,3.58
2022-09-21T15:52:25.663Z,3.60
2022-09-21T15:55:05.151Z,4.93
2022-09-21T15:57:39.231Z,3.97
2022-09-21T16:00:22.110Z,3.22
2022-09-21T16:05:22.836Z,2.70
2022-09-21T16:07:49.273Z,3.45
2022-09-21T16:10:30.863Z,2.35
2022-09-21T16:13:24.013Z,4.65
2022-09-21T16:16:01.560Z,4.05
2022-09-21T16:18:35.194Z,3.15
2022-09-21T16:21:12.252Z,2.83
2022-09-21T16:23:39.395Z,3.40
2022-09-21T16:26:06.120Z,3.50
2022-09-21T16:28:40.998Z,3.67
2022-09-21T16:31:26.138Z,4.38
2022-09-21T16:33:55.549Z,6.45
2022-09-21T16:36:33.805Z,5.90
2022-09-21T16:39:01.110Z,4.53
2022-09-21T16:41:34.370Z,4.43
2022-09-21T16:44:01.074Z,3.95
2022-09-21T16:46:27.530Z,3.40
2022-09-21T16:48:55.541Z,4.45
2022-09-21T16:51:25.128Z,5.32
2022-09-21T16:53:52.069Z,3.30
2022-09-21T16:56:18.593Z,5.10
2022-09-21T16:58:45.665Z,6.13
2022-09-21T17:01:14.095Z,4.05
2022-09-21T17:03:40.570Z,3.67
2022-09-21T17:06:20.468Z,5.18
2022-09-21T17:08:48.174Z,3.33
2022-09-21T17:11:19.751Z,6.30
2022-09-21T17:13:47.753Z,2.80
2022-09-21T17:16:18.183Z,5.45
2022-09-21T17:18:48.808Z,2.60
2022-09-21T17:21:16.268Z,2.95
2022-09-21T17:23:42.823Z,5.68
2022-09-21T17:26:19.225Z,2.72
2022-09-21T17:28:45.651Z,6.75
2022-09-21T17:31:13.742Z,20.25
2022-09-21T17:33:40.628Z,15.13
2022-09-21T17:36:07.809Z,11.43
2022-09-21T17:38:35.364Z,7.30
2022-09-21T17:41:04.077Z,5.82
2022-09-21T17:43:37.178Z,6.60
2022-09-21T17:46:35.919Z,7.13
2022-09-21T17:49:03.787Z,3.92
2022-09-21T17:51:49.231Z,4.07
2022-09-21T17:54:15.970Z,5.38
2022-09-21T17:56:47.908Z,5.15
2022-09-21T17:59:27.796Z,4.10
2022-09-21T18:01:54.384Z,3.47
2022-09-21T18:04:21.076Z,3.95
2022-09-21T18:06:47.853Z,5.30
2022-09-21T18:09:14.441Z,3.30
2022-09-21T18:12:02.014Z,4.97
2022-09-21T18:15:04.025Z,5.07
2022-09-21T18:17:50.165Z,6.25
2022-09-21T18:20:28.717Z,4.70
2022-09-21T18:23:33.316Z,5.65
2022-09-21T18:26:00.463Z,8.35
2022-09-21T18:28:59.566Z,9.48
2022-09-21T18:31:44.674Z,6.20
2022-09-21T18:34:29.156Z,5.70
2022-09-21T18:37:43.028Z,5.20
2022-09-21T18:40:28.501Z,6.38
2022-09-21T18:43:01.552Z,5.50
2022-09-21T18:45:31.845Z,4.30
2022-09-21T18:48:16.504Z,4.32
2022-09-21T18:51:10.773Z,3.17
2022-09-21T18:53:55.923Z,2.88
2022-09-21T18:56:24.574Z,3.50
2022-09-21T18:58:51.761Z,4.35
2022-09-21T19:01:21.717Z,4.55
2022-09-21T19:03:49.710Z,3.20
2022-09-21T19:06:37.419Z,3.38
2022-09-21T19:09:51.110Z,3.30
2022-09-21T19:12:20.345Z,6.07
2022-09-21T19:15:00.361Z,6.30
2022-09-21T19:17:49.214Z,6.18
2022-09-21T19:20:29.391Z,4.15
2022-09-21T19:23:25.439Z,4.32
2022-09-21T19:25:53.382Z,6.05
2022-09-21T19:28:55.626Z,6.15
2022-09-21T19:31:22.183Z,4.30
2022-09-21T19:33:51.048Z,4.60
2022-09-21T19:36:18.717Z,4.10
2022-09-21T19:38:45.620Z,4.80
2022-09-21T19:41:24.900Z,3.75
2022-09-21T19:44:17.915Z,4.95
2022-09-21T19:49:19.711Z,4.85
2022-09-21T19:51:50.168Z,3.63
2022-09-21T19:54:40.225Z,5.57
2022-09-21T19:57:38.443Z,5.40
2022-09-21T20:00:07.295Z,6.03
2022-09-21T20:02:40.432Z,3.42
2022-09-21T20:05:22.350Z,6.10
2022-09-21T20:08:02.004Z,4.10
2022-09-21T20:10:41.969Z,4.03
2022-09-21T20:13:21.978Z,4.63
2022-09-21T20:16:18.943Z,2.88
2022-09-21T20:18:53.204Z,3.05
2022-09-21T20:21:21.069Z,7.10
2022-09-21T20:23:52.116Z,3.92
2022-09-21T20:26:23.861Z,5.20
2022-09-21T20:28:54.117Z,4.15
2022-09-21T20:31:25.147Z,5.50
2022-09-21T20:33:52.302Z,5.25
2022-09-21T20:36:18.685Z,4.95
2022-09-21T20:38:45.118Z,4.55
2022-09-21T20:41:13.004Z,4.20
2022-09-21T20:43:39.752Z,6.43
2022-09-21T20:46:06.548Z,6.30
2022-09-21T20:48:33.138Z,11.25
2022-09-21T20:51:01.443Z,5.45
2022-09-21T20:53:27.812Z,6.47
2022-09-21T20:55:58.442Z,4.22
2022-09-21T20:58:25.077Z,4.88
2022-09-21T21:00:56.470Z,5.05
2022-09-21T21:03:25.128Z,4.07
2022-09-21T21:05:51.491Z,3.67
2022-09-21T21:08:17.892Z,6.75
2022-09-21T21:10:46.564Z,4.15
2022-09-21T21:13:13.003Z,6.43
2022-09-21T21:15:39.456Z,6.07
2022-09-21T21:18:09.801Z,6.05
2022-09-21T21:20:37.458Z,5.82
2022-09-21T21:23:07.920Z,8.10
2022-09-21T21:25:34.720Z,9.15
2022-09-21T21:28:01.329Z,7.68
2022-09-21T21:30:27.761Z,6.85
2022-09-21T21:32:54.182Z,6.53
2022-09-21T21:35:20.576Z,6.60
2022-09-21T21:37:47.029Z,11.07
2022-09-21T21:40:13.483Z,11.05
2022-09-21T21:42:39.911Z,10.25
2022-09-21T21:45:06.735Z,10.35
2022-09-21T21:47:41.351Z,10.48
2022-09-21T21:50:09.205Z,8.75
2022-09-21T21:52:35.608Z,11.23
2022-09-21T21:55:02.487Z,10.88
2022-09-21T21:57:29.035Z,12.50
2022-09-21T21:59:55.446Z,11.25
2022-09-21T22:02:21.908Z,11.20
2022-09-21T22:04:48.360Z,9.80
2022-09-21T22:07:14.760Z,12.93
2022-09-21T22:09:41.144Z,9.82
2022-09-21T22:12:07.672Z,9.57
2022-09-21T22:14:34.073Z,10.10
2022-09-21T22:17:00.510Z,11.77
2022-09-21T22:19:26.926Z,9.15
2022-09-21T22:21:54.391Z,10.13
2022-09-21T22:24:21.313Z,11.73
2022-09-21T22:26:48.629Z,7.63
2022-09-21T22:29:16.534Z,5.70
2022-09-21T22:31:45.179Z,7.22
2022-09-21T22:34:12.550Z,7.78
2022-09-21T22:36:39.627Z,8.13
2022-09-21T22:39:07.344Z,7.45
2022-09-21T22:41:36.401Z,7.88
2022-09-21T22:44:02.846Z,9.35
2022-09-21T22:46:30.003Z,6.53
2022-09-21T22:48:56.389Z,7.07
2022-09-21T22:51:23.362Z,10.23
2022-09-21T22:53:50.895Z,8.95
2022-09-21T22:56:22.618Z,7.30
2022-09-21T22:58:51.744Z,5.97
2022-09-21T23:01:25.349Z,7.97
2022-09-21T23:03:57.653Z,8.57
2022-09-21T23:06:26.587Z,10.18
2022-09-21T23:08:54.538Z,7.05
2022-09-21T23:11:29.582Z,7.22
2022-09-21T23:13:57.017Z,8.02
2022-09-21T23:16:24.661Z,11.23
2022-09-21T23:18:51.818Z,8.95
2022-09-21T23:21:21.257Z,9.45
2022-09-21T23:23:48.195Z,10.85
2022-09-21T23:26:19.924Z,11.75
2022-09-21T23:28:51.907Z,7.73
2022-09-21T23:31:18.558Z,9.82
2022-09-21T23:33:47.661Z,11.48
2022-09-21T23:36:17.103Z,10.15
2022-09-21T23:38:43.995Z,7.68
2022-09-21T23:41:12.474Z,11.45
2022-09-21T23:43:40.161Z,10.40
2022-09-21T23:46:07.917Z,11.40
2022-09-21T23:48:34.565Z,10.27
2022-09-21T23:51:01.047Z,9.75
2022-09-21T23:53:28.237Z,15.90
2022-09-21T23:55:55.426Z,9.70
2022-09-21T23:58:22.357Z,11.50
